Map

Track Data

SID SEASON NUMBER BASIN SUBBASIN NAME ISO_TIME NATURE LAT LON WMO_WIND WMO_PRES WMO_AGENCY TRACK_TYPE DIST2LAND LANDFALL IFLAG USA_AGENCY USA_ATCF_ID USA_LAT USA_LON USA_RECORD USA_STATUS USA_WIND USA_PRES USA_SSHS USA_R34_NE USA_R34_SE USA_R34_SW USA_R34_NW USA_R50_NE USA_R50_SE USA_R50_SW USA_R50_NW USA_R64_NE USA_R64_SE USA_R64_SW USA_R64_NW USA_POCI USA_ROCI USA_RMW USA_EYE TOKYO_LAT TOKYO_LON TOKYO_GRADE TOKYO_WIND TOKYO_PRES TOKYO_R50_DIR TOKYO_R50_LONG TOKYO_R50_SHORT TOKYO_R30_DIR TOKYO_R30_LONG TOKYO_R30_SHORT TOKYO_LAND CMA_LAT CMA_LON CMA_CAT CMA_WIND CMA_PRES HKO_LAT HKO_LON HKO_CAT HKO_WIND HKO_PRES NEWDELHI_LAT NEWDELHI_LON NEWDELHI_GRADE NEWDELHI_WIND NEWDELHI_PRES NEWDELHI_CI NEWDELHI_DP NEWDELHI_POCI REUNION_LAT REUNION_LON REUNION_TYPE REUNION_WIND REUNION_PRES REUNION_TNUM REUNION_CI REUNION_RMW REUNION_R34_NE REUNION_R34_SE REUNION_R34_SW REUNION_R34_NW REUNION_R50_NE REUNION_R50_SE REUNION_R50_SW REUNION_R50_NW REUNION_R64_NE REUNION_R64_SE REUNION_R64_SW REUNION_R64_NW BOM_LAT BOM_LON BOM_TYPE BOM_WIND BOM_PRES BOM_TNUM BOM_CI BOM_RMW BOM_R34_NE BOM_R34_SE BOM_R34_SW BOM_R34_NW BOM_R50_NE BOM_R50_SE BOM_R50_SW BOM_R50_NW BOM_R64_NE BOM_R64_SE BOM_R64_SW BOM_R64_NW BOM_ROCI BOM_POCI BOM_EYE BOM_POS_METHOD BOM_PRES_METHOD NADI_LAT NADI_LON NADI_CAT NADI_WIND NADI_PRES WELLINGTON_LAT WELLINGTON_LON WELLINGTON_WIND WELLINGTON_PRES DS824_LAT DS824_LON DS824_STAGE DS824_WIND DS824_PRES TD9636_LAT TD9636_LON TD9636_STAGE TD9636_WIND TD9636_PRES TD9635_LAT TD9635_LON TD9635_WIND TD9635_PRES TD9635_ROCI NEUMANN_LAT NEUMANN_LON NEUMANN_CLASS NEUMANN_WIND NEUMANN_PRES MLC_LAT MLC_LON MLC_CLASS MLC_WIND MLC_PRES USA_GUST BOM_GUST BOM_GUST_PER REUNION_GUST REUNION_GUST_PER USA_SEAHGT USA_SEARAD_NE USA_SEARAD_SE USA_SEARAD_SW USA_SEARAD_NW STORM_SPEED STORM_DIR
1927339N10130 1927 72 WP MM NOT_NAMED 1927-12-04 22:00:00 NR 10.1000 129.900 main 418 361 __________O___ -1 10.1000 129.900 2 19 292
1927339N10130 1927 72 WP MM NOT_NAMED 1927-12-05 00:00:00 NR 10.3317 129.313 main 361 286 __________P___ -1 10.3317 129.313 2 19 291
1927339N10130 1927 72 WP MM NOT_NAMED 1927-12-05 03:00:00 NR 10.6664 128.432 main 286 196 __________P___ -1 10.6664 128.432 2 18 290
1927339N10130 1927 72 WP MM NOT_NAMED 1927-12-05 06:00:00 NR 10.9706 127.556 main 196 100 __________P___ -1 10.9706 127.556 2 18 288
1927339N10130 1927 72 WP MM NOT_NAMED 1927-12-05 09:00:00 NR 11.2277 126.687 main 100 73 __________P___ -1 11.2277 126.687 2 18 286
1927339N10130 1927 72 WP MM NOT_NAMED 1927-12-05 10:00:00 NR 11.3000 126.400 main 73 21 __________O___ -1 11.3000 126.400 2 17 283
1927339N10130 1927 72 WP MM NOT_NAMED 1927-12-05 12:00:00 NR 11.4223 125.830 main 21 0 __________P___ -1 11.4223 125.830 2 17 280
1927339N10130 1927 72 WP MM NOT_NAMED 1927-12-05 15:00:00 NR 11.5560 124.989 main 0 10 __________P___ -1 11.5560 124.989 2 16 278
1927339N10130 1927 72 WP MM NOT_NAMED 1927-12-05 18:00:00 NR 11.6410 124.165 main 15 10 __________P___ -1 11.6410 124.165 2 16 275
1927339N10130 1927 72 WP MM NOT_NAMED 1927-12-05 21:00:00 NR 11.6897 123.362 main 39 22 __________P___ -1 11.6897 123.362 2 16 273
1927339N10130 1927 72 WP MM NOT_NAMED 1927-12-05 22:00:00 NR 11.7000 123.100 main 22 15 __________O___ -1 11.7000 123.100 2 15 273
1927339N10130 1927 72 WP MM NOT_NAMED 1927-12-06 00:00:00 NR 11.7274 122.583 main 15 0 __________P___ -1 11.7274 122.583 2 15 272
1927339N10130 1927 72 WP MM NOT_NAMED 1927-12-06 03:00:00 NR 11.7440 121.826 main 11 11 __________P___ -1 11.7440 121.826 2 15 270
1927339N10130 1927 72 WP MM NOT_NAMED 1927-12-06 06:00:00 NR 11.7365 121.084 main 55 57 __________P___ -1 11.7365 121.084 2 15 269
1927339N10130 1927 72 WP MM NOT_NAMED 1927-12-06 09:00:00 NR 11.7113 120.346 main 88 70 __________P___ -1 11.7113 120.346 2 14 268
1927339N10130 1927 72 WP MM NOT_NAMED 1927-12-06 10:00:00 NR 11.7000 120.100 main 70 44 __________O___ -1 11.7000 120.100 2 16 267
1927339N10130 1927 72 WP MM NOT_NAMED 1927-12-06 12:00:00 NR 11.6732 119.550 main 44 44 __________P___ -1 11.6732 119.550 2 16 267
1927339N10130 1927 72 WP MM NOT_NAMED 1927-12-06 15:00:00 NR 11.6202 118.724 main 88 88 __________P___ -1 11.6202 118.724 2 16 266
1927339N10130 1927 72 WP MM NOT_NAMED 1927-12-06 18:00:00 NR 11.5626 117.950 main 169 169 __________P___ -1 11.5626 117.950 2 14 266
1927339N10130 1927 72 WP MM NOT_NAMED 1927-12-06 21:00:00 NR 11.5127 117.286 main 226 226 __________P___ -1 11.5127 117.286 2 13 266
1927339N10130 1927 72 WP MM NOT_NAMED 1927-12-06 22:00:00 NR 11.5000 117.100 main 243 243 __________O___ -1 11.5000 117.100 7 9 267
1927339N10130 1927 72 WP MM NOT_NAMED 1927-12-07 00:00:00 NR 11.4902 116.816 main 269 269 __________P___ -1 11.4902 116.816 7 7 269
1927339N10130 1927 72 WP MM NOT_NAMED 1927-12-07 03:00:00 NR 11.4891 116.511 main 294 294 __________P___ -1 11.4891 116.511 7 5 271
1927339N10130 1927 72 WP MM NOT_NAMED 1927-12-07 06:00:00 NR 11.4958 116.287 main 305 305 __________P___ -1 11.4958 116.287 7 4 272
1927339N10130 1927 72 WP MM NOT_NAMED 1927-12-07 09:00:00 NR 11.5006 116.078 main 317 317 __________P___ -1 11.5006 116.078 7 4 271
1927339N10130 1927 72 WP MM NOT_NAMED 1927-12-07 10:00:00 NR 11.5000 116.000 main 324 324 __________O___ -1 11.5000 116.000 7 6 269
1927339N10130 1927 72 WP MM NOT_NAMED 1927-12-07 12:00:00 NR 11.4969 115.781 main 338 338 __________P___ -1 11.4969 115.781 7 7 269
1927339N10130 1927 72 WP MM NOT_NAMED 1927-12-07 15:00:00 NR 11.4862 115.434 main 367 367 __________P___ -1 11.4862 115.434 7 7 267
1927339N10130 1927 72 WP MM NOT_NAMED 1927-12-07 18:00:00 NR 11.4625 115.075 main 391 391 __________P___ -1 11.4625 115.075 7 7 265
1927339N10130 1927 72 WP MM NOT_NAMED 1927-12-07 21:00:00 NR 11.4196 114.717 main 415 415 __________P___ -1 11.4196 114.717 7 7 262
1927339N10130 1927 72 WP MM NOT_NAMED 1927-12-07 22:00:00 NR 11.4000 114.600 main 423 423 __________O___ -1 11.4000 114.600 7 7 258
1927339N10130 1927 72 WP MM NOT_NAMED 1927-12-08 00:00:00 NR 11.3504 114.378 main 440 433 __________P___ -1 11.3504 114.378 7 7 255
1927339N10130 1927 72 WP MM NOT_NAMED 1927-12-08 03:00:00 NR 11.2570 114.050 main 459 461 __________P___ -1 11.2570 114.050 7 7 252
1927339N10130 1927 72 WP MM NOT_NAMED 1927-12-08 06:00:00 NR 11.1495 113.728 main 483 458 __________P___ -1 11.1495 113.728 7 7 251
1927339N10130 1927 72 WP MM NOT_NAMED 1927-12-08 09:00:00 NR 11.0370 113.407 main 458 447 __________P___ -1 11.0370 113.407 7 7 250
1927339N10130 1927 72 WP MM NOT_NAMED 1927-12-08 10:00:00 NR 11.0000 113.300 main 447 429 __________O___ -1 11.0000 113.300 7 7 251
1927339N10130 1927 72 WP MM NOT_NAMED 1927-12-08 12:00:00 NR 10.9284 113.085 main 429 401 __________P___ -1 10.9284 113.085 7 7 252
1927339N10130 1927 72 WP MM NOT_NAMED 1927-12-08 15:00:00 NR 10.8259 112.761 main 401 363 __________P___ -1 10.8259 112.761 7 7 253
1927339N10130 1927 72 WP MM NOT_NAMED 1927-12-08 18:00:00 NR 10.7277 112.435 main 363 338 __________P___ -1 10.7277 112.435 7 7 253
1927339N10130 1927 72 WP MM NOT_NAMED 1927-12-08 21:00:00 NR 10.6318 112.109 main 338 328 __________P___ -1 10.6318 112.109 7 7 253
1927339N10130 1927 72 WP MM NOT_NAMED 1927-12-08 22:00:00 NR 10.6000 112.000 main 328 __________O___ -1 10.6000 112.000 7 7 253

Digital Typhoon Data and Search

About IBTrACS Database

This database is a web-friendly format of International Best Track Archive for Climate Stewardship (IBTrACS), a global best track data archive curated by NOAA dating back to 1842.

Updated: 2021-10-21